createdAt,value
2023-01-07T00:00:22.550Z,97.2
2023-01-07T00:05:22.491Z,97.3
2023-01-07T00:10:22.490Z,97.5
2023-01-07T00:15:22.520Z,97.8
2023-01-07T00:20:22.503Z,97.7
2023-01-07T00:25:22.520Z,98
2023-01-07T00:30:22.532Z,97.9
2023-01-07T00:35:22.502Z,98
2023-01-07T00:40:22.495Z,98.1
2023-01-07T00:45:22.479Z,98.1
2023-01-07T00:50:22.472Z,98
2023-01-07T00:55:22.477Z,97.7
2023-01-07T01:00:22.474Z,98
2023-01-07T01:05:22.476Z,98
2023-01-07T01:10:22.464Z,98
2023-01-07T01:15:22.452Z,98.3
2023-01-07T01:20:22.435Z,98.1
2023-01-07T01:25:22.453Z,98
2023-01-07T01:30:22.462Z,98
2023-01-07T01:35:22.424Z,97.9
2023-01-07T01:40:22.577Z,98
2023-01-07T01:45:22.554Z,97.5
2023-01-07T01:50:22.430Z,97.4
2023-01-07T01:55:22.418Z,98
2023-01-07T02:00:22.401Z,97.8
2023-01-07T02:05:22.416Z,97.9
2023-01-07T02:10:22.421Z,98
2023-01-07T02:15:22.401Z,98.1
2023-01-07T02:20:22.393Z,98.2
2023-01-07T02:25:22.419Z,98.3
2023-01-07T02:30:22.430Z,98.3
2023-01-07T02:35:22.382Z,98.2
2023-01-07T02:40:22.393Z,98.3
2023-01-07T02:45:22.388Z,98.6
2023-01-07T02:50:22.388Z,98.6
2023-01-07T02:55:22.376Z,98.4
2023-01-07T03:00:22.385Z,98.6
2023-01-07T03:05:22.360Z,98.5
2023-01-07T03:10:22.372Z,98.7
2023-01-07T03:15:22.353Z,99.1
2023-01-07T03:20:22.376Z,99.3
2023-01-07T03:25:22.340Z,99.2
2023-01-07T03:30:22.360Z,99.1
2023-01-07T03:35:22.358Z,99
2023-01-07T03:40:22.328Z,99.2
2023-01-07T03:45:22.350Z,99.1
2023-01-07T03:50:22.357Z,99.2
2023-01-07T03:55:22.314Z,99.2
2023-01-07T04:00:22.308Z,99.4
2023-01-07T04:05:22.306Z,99.4
2023-01-07T04:10:22.315Z,99.5
2023-01-07T04:15:22.313Z,99.6
2023-01-07T04:20:22.307Z,99.5
2023-01-07T04:25:22.304Z,99.6
2023-01-07T04:30:22.289Z,99.9
2023-01-07T04:35:22.307Z,99.9
2023-01-07T04:40:22.312Z,99.9
2023-01-07T04:45:22.324Z,99.5
2023-01-07T04:50:22.306Z,99.5
2023-01-07T04:55:22.270Z,99.6
2023-01-07T05:00:22.263Z,99.3
2023-01-07T05:05:22.299Z,99
2023-01-07T05:10:22.311Z,99.2
2023-01-07T05:15:22.289Z,98.5
2023-01-07T05:20:22.284Z,98.7
2023-01-07T05:25:22.252Z,98.3
2023-01-07T05:30:22.388Z,98.4
2023-01-07T05:35:22.268Z,98.6
2023-01-07T05:40:22.241Z,98.9
2023-01-07T05:45:22.250Z,98.9
2023-01-07T05:50:22.236Z,99.3
2023-01-07T05:55:22.224Z,99.8
2023-01-07T06:00:22.229Z,99.8
2023-01-07T06:05:22.250Z,100
2023-01-07T06:10:22.247Z,100
2023-01-07T06:15:22.259Z,100
2023-01-07T06:20:22.230Z,100
2023-01-07T06:25:22.216Z,100
2023-01-07T06:30:22.246Z,100
2023-01-07T06:35:22.232Z,100
2023-01-07T06:40:22.230Z,100
2023-01-07T06:45:22.213Z,100
2023-01-07T06:50:22.241Z,100
2023-01-07T06:55:22.243Z,100
2023-01-07T07:00:22.213Z,100
2023-01-07T07:05:22.193Z,100
2023-01-07T07:10:22.192Z,100
2023-01-07T07:15:22.228Z,100
2023-01-07T07:20:22.214Z,100
2023-01-07T07:25:22.182Z,100
2023-01-07T07:30:22.206Z,100
2023-01-07T07:35:22.197Z,100
2023-01-07T07:40:22.176Z,100
2023-01-07T07:45:22.185Z,100
2023-01-07T07:50:22.193Z,100
2023-01-07T07:55:26.394Z,100
2023-01-07T08:00:22.181Z,100
2023-01-07T08:05:22.196Z,100
2023-01-07T08:10:22.203Z,100
2023-01-07T08:15:22.187Z,100
2023-01-07T08:20:22.194Z,100
2023-01-07T08:25:22.188Z,100
2023-01-07T08:30:22.166Z,100
2023-01-07T08:35:22.161Z,100
2023-01-07T08:40:22.181Z,100
2023-01-07T08:45:22.151Z,100
2023-01-07T08:50:22.168Z,100
2023-01-07T08:55:22.145Z,100
2023-01-07T09:00:22.161Z,100
2023-01-07T09:05:22.284Z,100
2023-01-07T09:10:22.176Z,100
2023-01-07T09:15:22.154Z,100
2023-01-07T09:20:22.149Z,99
2023-01-07T09:25:22.132Z,98.1
2023-01-07T09:30:22.135Z,97.2
2023-01-07T09:35:22.114Z,95.1
2023-01-07T09:40:22.154Z,94.1
2023-01-07T09:45:22.137Z,92.8
2023-01-07T09:50:24.391Z,92.5
2023-01-07T09:55:22.122Z,92.3
2023-01-07T10:00:22.198Z,91.9
2023-01-07T10:05:22.104Z,91.4
2023-01-07T10:10:22.155Z,90.9
2023-01-07T10:15:22.096Z,90.4
2023-01-07T10:20:22.095Z,89.9
2023-01-07T10:25:22.105Z,89.5
2023-01-07T10:30:22.089Z,89.1
2023-01-07T10:35:22.080Z,88.5
2023-01-07T10:40:22.085Z,87.5
2023-01-07T10:45:22.060Z,86.6
2023-01-07T10:50:22.076Z,86
2023-01-07T10:55:22.075Z,86
2023-01-07T11:00:22.070Z,86
2023-01-07T11:05:22.115Z,85.6
2023-01-07T11:10:22.040Z,85.5
2023-01-07T11:15:22.039Z,85
2023-01-07T11:20:22.033Z,84.9
2023-01-07T11:25:22.051Z,84.5
2023-01-07T11:30:22.064Z,84.5
2023-01-07T11:35:22.968Z,84.7
2023-01-07T11:40:22.022Z,84.7
2023-01-07T11:45:22.024Z,84.7
2023-01-07T11:50:22.034Z,85.5
2023-01-07T11:55:22.009Z,85.2
2023-01-07T12:00:21.994Z,85.3
2023-01-07T12:05:22.025Z,85.6
2023-01-07T12:15:22.037Z,85.4
2023-01-07T12:20:22.013Z,85.9
2023-01-07T12:25:21.984Z,85.6
2023-01-07T12:30:21.981Z,85.6
2023-01-07T12:35:21.975Z,85.7
2023-01-07T12:40:21.965Z,86
2023-01-07T12:45:21.979Z,85.8
2023-01-07T12:50:21.968Z,86
2023-01-07T12:55:21.957Z,86
2023-01-07T13:00:21.967Z,85.5
2023-01-07T13:05:21.973Z,85.6
2023-01-07T13:10:22.014Z,85.6
2023-01-07T13:15:21.946Z,86
2023-01-07T13:20:21.925Z,85.8
2023-01-07T13:25:21.923Z,86.2
2023-01-07T13:35:21.927Z,86.8
2023-01-07T13:40:21.927Z,85.3
2023-01-07T13:45:21.916Z,85.7
2023-01-07T13:50:21.920Z,86
2023-01-07T13:55:21.887Z,86.1
2023-01-07T14:00:22.301Z,86.8
2023-01-07T14:15:21.887Z,87.1
2023-01-07T14:20:21.896Z,87.6
2023-01-07T14:30:21.876Z,89
2023-01-07T14:35:21.867Z,90.2
2023-01-07T14:55:21.844Z,93.6
2023-01-07T15:05:21.832Z,95.1
2023-01-07T15:10:21.849Z,95.7
2023-01-07T15:15:21.858Z,96.3
2023-01-07T15:20:21.832Z,96.7
2023-01-07T15:25:22.683Z,97
2023-01-07T15:30:21.845Z,97.4
2023-01-07T15:35:21.807Z,97.7
2023-01-07T15:40:21.805Z,98.7
2023-01-07T15:45:21.808Z,98.9
2023-01-07T15:50:21.842Z,99.2
2023-01-07T15:55:21.801Z,100
2023-01-07T16:00:21.812Z,100
2023-01-07T16:05:21.808Z,100
2023-01-07T16:15:21.805Z,100
2023-01-07T16:20:21.787Z,100
2023-01-07T16:25:21.788Z,100
2023-01-07T16:30:21.777Z,100
2023-01-07T16:35:21.787Z,100
2023-01-07T16:40:21.791Z,100
2023-01-07T16:45:21.794Z,100
2023-01-07T16:50:21.796Z,100
2023-01-07T16:55:21.765Z,100
2023-01-07T17:00:21.756Z,100
2023-01-07T17:05:21.760Z,100
2023-01-07T17:10:21.762Z,100
2023-01-07T17:15:21.752Z,100
2023-01-07T17:20:21.757Z,100
2023-01-07T17:25:21.758Z,100
2023-01-07T17:30:21.768Z,100
2023-01-07T17:35:21.767Z,100
2023-01-07T17:40:21.769Z,100
2023-01-07T17:45:21.744Z,100
2023-01-07T17:50:21.748Z,100
2023-01-07T17:55:21.751Z,100
2023-01-07T18:00:21.748Z,100
2023-01-07T18:05:21.768Z,100
2023-01-07T18:10:21.734Z,100
2023-01-07T18:15:21.733Z,100
2023-01-07T18:20:21.758Z,100
2023-01-07T18:25:21.787Z,100
2023-01-07T18:30:21.730Z,100
2023-01-07T18:35:21.713Z,100
2023-01-07T18:40:21.735Z,100
2023-01-07T18:45:21.726Z,100
2023-01-07T18:50:21.722Z,100
2023-01-07T18:55:21.717Z,100
2023-01-07T19:00:21.707Z,100
2023-01-07T19:05:21.693Z,100
2023-01-07T19:10:21.699Z,100
2023-01-07T19:15:21.704Z,100
2023-01-07T19:20:21.713Z,100
2023-01-07T19:25:21.691Z,100
2023-01-07T19:30:21.683Z,100
2023-01-07T19:35:21.701Z,100
2023-01-07T19:40:21.684Z,100
2023-01-07T19:45:21.772Z,100
2023-01-07T19:50:21.699Z,100
2023-01-07T19:55:21.680Z,100
2023-01-07T20:00:21.701Z,100
2023-01-07T20:05:21.685Z,100
2023-01-07T20:10:21.673Z,100
2023-01-07T20:15:21.682Z,100
2023-01-07T20:20:21.702Z,100
2023-01-07T20:25:21.686Z,100
2023-01-07T20:30:21.681Z,100
2023-01-07T20:35:21.678Z,100
2023-01-07T20:40:21.732Z,100
2023-01-07T20:45:21.694Z,100
2023-01-07T20:50:21.671Z,100
2023-01-07T20:55:21.700Z,100
2023-01-07T21:00:21.674Z,100
2023-01-07T21:05:21.653Z,100
2023-01-07T21:10:21.671Z,100
2023-01-07T21:15:21.671Z,100
2023-01-07T21:20:21.675Z,100
2023-01-07T21:25:21.676Z,100
2023-01-07T21:30:21.662Z,100
2023-01-07T21:35:21.665Z,100
2023-01-07T21:40:21.674Z,100
2023-01-07T21:45:21.705Z,100
2023-01-07T21:50:21.645Z,100
2023-01-07T21:55:21.641Z,100
2023-01-07T22:00:21.631Z,100
2023-01-07T22:05:21.675Z,100
2023-01-07T22:10:21.630Z,100
2023-01-07T22:15:21.665Z,100
2023-01-07T22:20:21.666Z,100
2023-01-07T22:25:21.628Z,100
2023-01-07T22:30:21.689Z,100
2023-01-07T22:35:21.630Z,100
2023-01-07T22:40:21.624Z,100
2023-01-07T22:45:21.645Z,100
2023-01-07T22:50:21.635Z,100
2023-01-07T22:55:21.665Z,100
2023-01-07T23:00:21.631Z,100
2023-01-07T23:05:21.644Z,100
2023-01-07T23:10:21.632Z,100
2023-01-07T23:15:21.653Z,100
2023-01-07T23:20:21.629Z,100
2023-01-07T23:25:21.622Z,100
2023-01-07T23:30:21.631Z,100
2023-01-07T23:35:21.641Z,100
2023-01-07T23:40:21.623Z,100
2023-01-07T23:50:21.701Z,100
2023-01-07T23:55:21.625Z,100
